createdAt,value
2023-02-04T00:00:23.226Z,96834.25
2023-02-04T00:01:24.856Z,96834.31
2023-02-04T00:02:26.552Z,96834.41
2023-02-04T00:03:28.179Z,96834.00
2023-02-04T00:04:29.777Z,96834.03
2023-02-04T00:05:31.351Z,96843.50
2023-02-04T00:06:32.927Z,96838.22
2023-02-04T00:07:34.781Z,96835.03
2023-02-04T00:08:37.628Z,96834.00
2023-02-04T00:09:39.240Z,96837.97
2023-02-04T00:10:40.852Z,96839.34
2023-02-04T00:11:42.610Z,96834.59
2023-02-04T00:12:44.194Z,96829.88
2023-02-04T00:13:45.749Z,96829.56
2023-02-04T00:14:47.313Z,96828.28
2023-02-04T00:15:48.914Z,96818.81
2023-02-04T00:16:50.527Z,96828.34
2023-02-04T00:17:52.228Z,96825.75
2023-02-04T00:18:53.756Z,96814.16
2023-02-04T00:19:55.373Z,96817.84
2023-02-04T00:20:56.921Z,96814.19
2023-02-04T00:21:58.448Z,96818.13
2023-02-04T00:23:00.016Z,96818.94
2023-02-04T00:24:01.580Z,96826.34
2023-02-04T00:25:03.223Z,96818.44
2023-02-04T00:26:05.081Z,96820.59
2023-02-04T00:27:07.575Z,96807.38
2023-02-04T00:28:09.184Z,96808.66
2023-02-04T00:29:10.774Z,96798.91
2023-02-04T00:30:13.088Z,96799.19
2023-02-04T00:31:14.662Z,96792.59
2023-02-04T00:32:16.410Z,96793.66
2023-02-04T00:33:17.992Z,96794.19
2023-02-04T00:34:19.618Z,96796.25
2023-02-04T00:35:21.562Z,96795.19
2023-02-04T00:36:23.117Z,96790.44
2023-02-04T00:37:24.941Z,96800.19
2023-02-04T00:38:26.463Z,96793.81
2023-02-04T00:39:28.043Z,96794.56
2023-02-04T00:40:29.852Z,96790.88
2023-02-04T00:41:31.569Z,96787.94
2023-02-04T00:42:33.116Z,96788.69
2023-02-04T00:43:34.671Z,96792.63
2023-02-04T00:44:37.103Z,96788.63
2023-02-04T00:45:38.694Z,96796.50
2023-02-04T00:46:41.665Z,96791.16
2023-02-04T00:47:43.181Z,96786.88
2023-02-04T00:48:44.720Z,96791.53
2023-02-04T00:49:46.282Z,96782.47
2023-02-04T00:50:47.863Z,96778.31
2023-02-04T00:51:49.562Z,96780.94
2023-02-04T00:52:51.208Z,96775.09
2023-02-04T00:53:52.788Z,96772.50
2023-02-04T00:54:54.362Z,96776.69
2023-02-04T00:55:55.901Z,96778.69
2023-02-04T00:56:57.473Z,96775.00
2023-02-04T00:57:59.085Z,96771.50
2023-02-04T00:59:00.697Z,96770.19
2023-02-04T01:00:02.424Z,96774.44
2023-02-04T01:01:04.124Z,96767.13
2023-02-04T01:02:05.791Z,96769.91
2023-02-04T01:03:07.820Z,96768.13
2023-02-04T01:04:09.572Z,96769.50
2023-02-04T01:05:11.115Z,96768.72
2023-02-04T01:06:12.683Z,96771.09
2023-02-04T01:07:14.402Z,96767.94
2023-02-04T01:08:16.002Z,96772.19
2023-02-04T01:09:17.552Z,96765.34
2023-02-04T01:10:19.127Z,96758.94
2023-02-04T01:11:20.809Z,96759.50
2023-02-04T01:12:23.016Z,96760.88
2023-02-04T01:13:24.828Z,96755.09
2023-02-04T01:14:26.407Z,96759.59
2023-02-04T01:15:28.015Z,96755.88
2023-02-04T01:16:29.616Z,96755.88
2023-02-04T01:17:31.218Z,96744.81
2023-02-04T01:18:32.778Z,96742.22
2023-02-04T01:19:34.364Z,96749.66
2023-02-04T01:20:35.946Z,96745.94
2023-02-04T01:21:40.213Z,96740.66
2023-02-04T01:22:42.503Z,96740.09
2023-02-04T01:23:44.099Z,96747.78
2023-02-04T01:24:45.678Z,96734.91
2023-02-04T01:25:47.247Z,96743.81
2023-02-04T01:26:48.850Z,96743.19
2023-02-04T01:27:50.418Z,96739.00
2023-02-04T01:28:51.973Z,96737.97
2023-02-04T01:29:53.542Z,96739.13
2023-02-04T01:30:55.201Z,96739.69
2023-02-04T01:31:57.024Z,96741.78
2023-02-04T01:32:58.627Z,96741.81
2023-02-04T01:34:01.359Z,96734.50
2023-02-04T01:35:03.455Z,96735.06
2023-02-04T01:36:05.269Z,96732.88
2023-02-04T01:37:06.893Z,96727.56
2023-02-04T01:38:08.465Z,96733.88
2023-02-04T01:39:10.006Z,96729.94
2023-02-04T01:40:12.195Z,96727.03
2023-02-04T01:41:14.831Z,96724.34
2023-02-04T01:42:16.452Z,96720.00
2023-02-04T01:43:18.521Z,96724.63
2023-02-04T01:44:20.119Z,96726.69
2023-02-04T01:45:21.684Z,96722.56
2023-02-04T01:46:23.372Z,96721.19
2023-02-04T01:47:25.589Z,96732.16
2023-02-04T01:48:27.194Z,96722.03
2023-02-04T01:49:29.269Z,96724.59
2023-02-04T01:50:31.618Z,96718.16
2023-02-04T01:51:34.132Z,96724.97
2023-02-04T01:52:38.633Z,96718.84
2023-02-04T01:53:40.757Z,96717.41
2023-02-04T01:54:42.426Z,96711.50
2023-02-04T01:55:43.980Z,96715.66
2023-02-04T01:56:47.856Z,96709.22
2023-02-04T01:57:52.918Z,96710.25
2023-02-04T01:58:56.498Z,96707.28
2023-02-04T01:59:58.210Z,96708.09
2023-02-04T02:00:59.831Z,96694.78
2023-02-04T02:02:01.428Z,96696.94
2023-02-04T02:03:04.336Z,96689.84
2023-02-04T02:04:06.006Z,96698.50
2023-02-04T02:05:16.845Z,96685.56
2023-02-04T02:06:18.427Z,96690.63
2023-02-04T02:07:20.008Z,96694.13
2023-02-04T02:08:21.593Z,96679.03
2023-02-04T02:09:23.785Z,96679.63
2023-02-04T02:10:25.618Z,96679.16
2023-02-04T02:11:28.031Z,96682.59
2023-02-04T02:12:29.658Z,96673.31
2023-02-04T02:13:31.271Z,96683.53
2023-02-04T02:14:33.496Z,96678.88
2023-02-04T02:15:35.065Z,96676.41
2023-02-04T02:16:36.799Z,96677.19
2023-02-04T02:17:39.556Z,96679.63
2023-02-04T02:18:41.083Z,96682.38
2023-02-04T02:19:43.667Z,96683.50
2023-02-04T02:20:45.449Z,96671.91
2023-02-04T02:22:39.597Z,96675.88
2023-02-04T02:23:46.889Z,96659.75
2023-02-04T02:24:48.420Z,96655.25
2023-02-04T02:25:50.901Z,96657.63
2023-02-04T02:26:53.694Z,96659.03
2023-02-04T02:27:57.154Z,96658.69
2023-02-04T02:28:58.686Z,96654.94
2023-02-04T02:30:00.256Z,96647.41
2023-02-04T02:31:01.873Z,96646.59
2023-02-04T02:32:03.639Z,96643.59
2023-02-04T02:33:06.366Z,96657.25
2023-02-04T02:34:07.903Z,96655.06
2023-02-04T02:35:09.574Z,96661.28
2023-02-04T02:36:11.390Z,96662.28
2023-02-04T02:37:14.023Z,96663.28
2023-02-04T02:38:17.127Z,96664.88
2023-02-04T02:39:19.154Z,96653.28
2023-02-04T02:40:20.846Z,96656.41
2023-02-04T02:41:22.398Z,96654.00
2023-02-04T02:42:24.447Z,96656.84
2023-02-04T02:43:28.520Z,96661.50
2023-02-04T02:44:31.709Z,96650.06
2023-02-04T02:45:34.748Z,96653.13
2023-02-04T02:46:36.432Z,96647.75
2023-02-04T02:47:38.024Z,96649.06
2023-02-04T02:48:39.591Z,96651.13
2023-02-04T02:49:42.120Z,96657.41
2023-02-04T02:50:44.939Z,96648.91
2023-02-04T02:51:48.230Z,96640.03
2023-02-04T02:52:49.819Z,96633.69
2023-02-04T02:53:51.435Z,96624.41
2023-02-04T02:54:53.833Z,96620.28
2023-02-04T02:55:55.510Z,96621.38
2023-02-04T02:56:58.569Z,96625.41
2023-02-04T02:58:01.040Z,96627.25
2023-02-04T02:59:16.437Z,96625.13
2023-02-04T03:00:24.088Z,96611.00
2023-02-04T03:01:27.335Z,96609.94
2023-02-04T03:02:28.959Z,96611.97
2023-02-04T03:03:33.925Z,96605.22
2023-02-04T03:04:40.696Z,96605.75
2023-02-04T03:05:44.812Z,96610.97
2023-02-04T03:06:46.766Z,96611.28
2023-02-04T03:07:48.821Z,96609.69
2023-02-04T03:08:55.198Z,96600.41
2023-02-04T03:09:56.776Z,96603.06
2023-02-04T03:10:58.377Z,96591.16
2023-02-04T03:11:59.990Z,96597.22
2023-02-04T03:13:02.582Z,96600.34
2023-02-04T03:14:04.968Z,96594.75
2023-02-04T03:15:07.341Z,96593.88
2023-02-04T03:16:09.179Z,96601.34
2023-02-04T03:17:11.924Z,96591.81
2023-02-04T03:18:16.180Z,96587.03
2023-02-04T03:19:17.771Z,96587.66
2023-02-04T03:20:19.375Z,96590.56
2023-02-04T03:21:20.920Z,96586.41
2023-02-04T03:22:22.554Z,96571.91
2023-02-04T03:23:24.748Z,96576.19
2023-02-04T03:24:26.617Z,96569.91
2023-02-04T03:25:28.857Z,96565.91
2023-02-04T03:26:30.560Z,96563.84
2023-02-04T03:27:32.765Z,96576.31
2023-02-04T03:28:34.491Z,96569.44
2023-02-04T03:29:43.269Z,96565.50
2023-02-04T03:30:45.022Z,96568.44
2023-02-04T03:31:46.753Z,96566.63
2023-02-04T03:32:48.584Z,96564.81
2023-02-04T03:33:50.104Z,96563.59
2023-02-04T03:34:51.658Z,96562.00
2023-02-04T03:35:53.300Z,96557.72
2023-02-04T03:36:54.901Z,96561.09
2023-02-04T03:37:56.481Z,96567.41
2023-02-04T03:38:58.214Z,96564.94
2023-02-04T03:39:59.764Z,96566.53
2023-02-04T03:41:01.960Z,96571.25
2023-02-04T03:42:03.603Z,96566.97
2023-02-04T03:43:05.116Z,96568.94
2023-02-04T03:44:06.629Z,96563.28
2023-02-04T03:45:08.749Z,96567.19
2023-02-04T03:46:10.371Z,96563.19
2023-02-04T03:47:12.034Z,96562.09
2023-02-04T03:48:13.841Z,96565.25
2023-02-04T03:49:15.391Z,96566.34
2023-02-04T03:50:17.055Z,96565.25
2023-02-04T03:51:18.567Z,96563.56
2023-02-04T03:52:20.434Z,96559.78
2023-02-04T03:53:22.213Z,96554.56
2023-02-04T03:54:24.492Z,96555.56
2023-02-04T03:55:26.432Z,96551.00
2023-02-04T03:56:28.091Z,96547.81
2023-02-04T03:57:29.647Z,96548.81
2023-02-04T03:58:31.194Z,96542.88
2023-02-04T03:59:33.015Z,96542.94
2023-02-04T04:00:34.529Z,96550.59
2023-02-04T04:01:36.119Z,96552.78
2023-02-04T04:02:37.767Z,96550.00
2023-02-04T04:03:39.349Z,96552.34
2023-02-04T04:04:40.903Z,96552.25
2023-02-04T04:05:42.499Z,96544.38
2023-02-04T04:06:44.161Z,96544.59
2023-02-04T04:07:45.802Z,96550.31
2023-02-04T04:08:47.596Z,96547.38
2023-02-04T04:09:49.158Z,96544.72
2023-02-04T04:10:50.710Z,96541.59
2023-02-04T04:11:52.279Z,96538.16
2023-02-04T04:12:54.159Z,96537.91
2023-02-04T04:13:55.713Z,96542.25
2023-02-04T04:14:57.232Z,96530.25
2023-02-04T04:15:58.899Z,96529.63
2023-02-04T04:17:00.521Z,96521.69
2023-02-04T04:18:04.503Z,96528.34
2023-02-04T04:19:06.039Z,96519.84
2023-02-04T04:20:08.162Z,96522.19
2023-02-04T04:21:09.674Z,96526.41
2023-02-04T04:22:11.924Z,96517.56
2023-02-04T04:23:13.430Z,96524.47
2023-02-04T04:24:18.149Z,96514.53
2023-02-04T04:25:19.779Z,96518.31
2023-02-04T04:26:21.521Z,96526.47
2023-02-04T04:27:23.201Z,96524.47
2023-02-04T04:28:24.864Z,96529.13
2023-02-04T04:29:26.442Z,96529.56
2023-02-04T04:30:28.096Z,96523.25
2023-02-04T04:31:29.728Z,96513.25
2023-02-04T04:32:31.521Z,96520.13
2023-02-04T04:33:33.112Z,96522.63
2023-02-04T04:34:34.664Z,96518.22
2023-02-04T04:35:36.355Z,96516.97
2023-02-04T04:36:37.983Z,96514.59
2023-02-04T04:37:39.558Z,96510.16
2023-02-04T04:38:41.141Z,96512.00
2023-02-04T04:39:42.832Z,96509.56
2023-02-04T04:40:44.454Z,96513.38
2023-02-04T04:41:46.055Z,96507.91
2023-02-04T04:42:47.650Z,96505.91
2023-02-04T04:43:49.204Z,96510.19
2023-02-04T04:44:50.842Z,96503.84
2023-02-04T04:45:52.554Z,96489.78
2023-02-04T04:46:54.133Z,96494.78
2023-02-04T04:47:55.742Z,96487.09
2023-02-04T04:48:57.420Z,96484.66
2023-02-04T04:49:58.970Z,96489.34
2023-02-04T04:51:00.524Z,96491.50
2023-02-04T04:52:02.087Z,96490.94
2023-02-04T04:53:03.763Z,96497.78
2023-02-04T04:54:05.298Z,96498.25
2023-02-04T04:55:08.477Z,96492.91
2023-02-04T04:56:10.132Z,96491.59
2023-02-04T04:57:11.698Z,96490.81
2023-02-04T04:58:13.441Z,96497.09
2023-02-04T04:59:15.007Z,96498.13
2023-02-04T05:00:19.439Z,96509.34
2023-02-04T05:01:22.762Z,96507.31
2023-02-04T05:02:24.534Z,96506.09
2023-02-04T05:03:26.137Z,96502.03
2023-02-04T05:04:27.771Z,96499.50
2023-02-04T05:05:29.410Z,96497.28
2023-02-04T05:06:31.041Z,96495.06
2023-02-04T05:07:32.636Z,96500.78
2023-02-04T05:08:35.834Z,96499.63
2023-02-04T05:09:37.417Z,96502.97
2023-02-04T05:10:40.689Z,96507.41
2023-02-04T05:11:42.345Z,96508.09
2023-02-04T05:12:43.899Z,96503.78
2023-02-04T05:13:45.610Z,96500.25
2023-02-04T05:14:47.137Z,96502.81
2023-02-04T05:15:48.710Z,96503.81
2023-02-04T05:16:50.238Z,96501.16
2023-02-04T05:17:52.690Z,96499.09
2023-02-04T05:18:54.198Z,96502.81
2023-02-04T05:19:55.698Z,96502.25
2023-02-04T05:20:57.261Z,96503.06
2023-02-04T05:22:01.633Z,96510.13
2023-02-04T05:23:05.514Z,96505.63
2023-02-04T05:24:07.346Z,96508.22
2023-02-04T05:25:09.096Z,96503.09
2023-02-04T05:26:13.639Z,96512.44
2023-02-04T05:27:16.805Z,96505.66
2023-02-04T05:28:18.478Z,96506.72
2023-02-04T05:29:20.049Z,96507.22
2023-02-04T05:30:21.668Z,96505.13
2023-02-04T05:31:23.414Z,96511.63
2023-02-04T05:32:24.964Z,96511.03
2023-02-04T05:33:27.174Z,96510.44
2023-02-04T05:34:28.747Z,96521.25
2023-02-04T05:35:30.280Z,96515.34
2023-02-04T05:36:31.834Z,96520.88
2023-02-04T05:37:33.616Z,96521.78
2023-02-04T05:38:35.324Z,96513.22
2023-02-04T05:39:36.878Z,96522.75
2023-02-04T05:40:38.447Z,96516.97
2023-02-04T05:41:40.180Z,96518.06
2023-02-04T05:42:41.969Z,96522.50
2023-02-04T05:43:43.705Z,96522.78
2023-02-04T05:44:45.269Z,96518.63
2023-02-04T05:45:46.937Z,96522.78
2023-02-04T05:46:48.506Z,96519.66
2023-02-04T05:47:50.132Z,96527.00
2023-02-04T05:48:51.733Z,96526.41
2023-02-04T05:49:53.290Z,96533.00
2023-02-04T05:50:54.886Z,96531.78
2023-02-04T05:51:56.502Z,96528.81
2023-02-04T05:52:58.149Z,96522.63
2023-02-04T05:53:59.730Z,96529.84
2023-02-04T05:55:01.269Z,96523.88
2023-02-04T05:56:02.930Z,96522.03
2023-02-04T05:57:04.601Z,96518.94
2023-02-04T05:58:06.239Z,96519.53
2023-02-04T05:59:07.794Z,96522.47
2023-02-04T06:00:10.552Z,96521.31
2023-02-04T06:01:12.110Z,96532.34
2023-02-04T06:02:13.636Z,96527.47
2023-02-04T06:03:15.219Z,96526.84
2023-02-04T06:04:16.928Z,96529.69
2023-02-04T06:05:18.644Z,96527.47
2023-02-04T06:06:20.210Z,96532.25
2023-02-04T06:07:21.777Z,96532.47
2023-02-04T06:08:23.462Z,96533.28
2023-02-04T06:09:24.994Z,96532.75
2023-02-04T06:10:26.685Z,96534.28
2023-02-04T06:11:28.409Z,96536.25
2023-02-04T06:12:30.029Z,96539.13
2023-02-04T06:13:31.665Z,96545.19
2023-02-04T06:14:33.258Z,96544.25
2023-02-04T06:15:34.854Z,96546.50
2023-02-04T06:16:36.908Z,96541.72
2023-02-04T06:17:39.149Z,96549.06
2023-02-04T06:18:40.693Z,96543.78
2023-02-04T06:19:42.254Z,96546.44
2023-02-04T06:20:43.796Z,96551.72
2023-02-04T06:21:45.309Z,96549.06
2023-02-04T06:22:47.729Z,96548.53
2023-02-04T06:23:49.304Z,96551.66
2023-02-04T06:24:50.881Z,96544.22
2023-02-04T06:25:52.426Z,96546.25
2023-02-04T06:26:54.017Z,96545.38
2023-02-04T06:27:55.677Z,96552.50
2023-02-04T06:28:57.214Z,96546.31
2023-02-04T06:29:58.855Z,96545.22
2023-02-04T06:31:00.573Z,96546.00
2023-02-04T06:32:02.264Z,96551.91
2023-02-04T06:33:04.081Z,96559.81
2023-02-04T06:34:05.947Z,96553.91
2023-02-04T06:35:08.707Z,96553.91
2023-02-04T06:36:10.291Z,96554.09
2023-02-04T06:37:12.767Z,96560.94
2023-02-04T06:38:14.330Z,96559.16
2023-02-04T06:39:15.889Z,96557.03
2023-02-04T06:40:17.705Z,96550.75
2023-02-04T06:41:19.239Z,96553.47
2023-02-04T06:42:21.128Z,96551.09
2023-02-04T06:43:24.067Z,96548.91
2023-02-04T06:44:25.634Z,96552.50
2023-02-04T06:45:27.170Z,96552.59
2023-02-04T06:46:28.754Z,96559.75
2023-02-04T06:47:30.598Z,96558.09
2023-02-04T06:48:32.200Z,96558.78
2023-02-04T06:49:33.759Z,96564.19
2023-02-04T06:50:35.386Z,96565.78
2023-02-04T06:51:36.911Z,96567.34
2023-02-04T06:52:38.438Z,96565.50
2023-02-04T06:53:40.632Z,96566.84
2023-02-04T06:54:42.287Z,96568.41
2023-02-04T06:55:43.909Z,96565.19
2023-02-04T06:56:45.451Z,96556.75
2023-02-04T06:57:46.954Z,96559.91
2023-02-04T06:58:48.534Z,96567.25
2023-02-04T06:59:50.048Z,96558.88
2023-02-04T07:00:51.595Z,96559.34
2023-02-04T07:01:53.399Z,96548.53
2023-02-04T07:02:56.777Z,96550.81
2023-02-04T07:03:58.566Z,96551.31
2023-02-04T07:05:01.265Z,96551.25
2023-02-04T07:06:02.804Z,96550.66
2023-02-04T07:07:04.530Z,96546.50
2023-02-04T07:08:06.195Z,96540.22
2023-02-04T07:09:07.751Z,96543.47
2023-02-04T07:10:09.907Z,96543.94
2023-02-04T07:11:11.432Z,96539.09
2023-02-04T07:12:14.368Z,96540.66
2023-02-04T07:13:17.481Z,96540.75
2023-02-04T07:14:19.047Z,96534.25
2023-02-04T07:15:20.675Z,96533.78
2023-02-04T07:16:22.238Z,96532.69
2023-02-04T07:17:24.141Z,96533.13
2023-02-04T07:18:25.999Z,96541.22
2023-02-04T07:19:27.553Z,96547.34
2023-02-04T07:20:29.099Z,96548.06
2023-02-04T07:21:31.949Z,96549.78
2023-02-04T07:22:33.550Z,96537.97
2023-02-04T07:23:35.114Z,96532.09
2023-02-04T07:24:36.650Z,96530.72
2023-02-04T07:25:38.975Z,96530.94
2023-02-04T07:26:40.782Z,96540.88
2023-02-04T07:27:42.321Z,96541.13
2023-02-04T07:28:44.573Z,96538.88
2023-02-04T07:29:46.178Z,96536.25
2023-02-04T07:30:47.843Z,96535.66
2023-02-04T07:31:51.698Z,96540.16
2023-02-04T07:32:53.374Z,96532.56
2023-02-04T07:33:54.901Z,96537.69
2023-02-04T07:34:56.442Z,96534.63
2023-02-04T07:35:58.030Z,96534.63
2023-02-04T07:36:59.712Z,96532.94
2023-02-04T07:38:01.367Z,96529.13
2023-02-04T07:39:03.065Z,96536.41
2023-02-04T07:40:05.263Z,96535.41
2023-02-04T07:41:06.836Z,96545.47
2023-02-04T07:42:08.562Z,96539.09
2023-02-04T07:43:10.102Z,96536.91
2023-02-04T07:44:11.626Z,96539.16
2023-02-04T07:45:13.173Z,96542.91
2023-02-04T07:46:15.116Z,96533.69
2023-02-04T07:47:16.695Z,96536.75
2023-02-04T07:48:18.282Z,96536.66
2023-02-04T07:49:19.832Z,96531.56
2023-02-04T07:50:21.391Z,96529.34
2023-02-04T07:51:22.931Z,96524.00
2023-02-04T07:52:25.016Z,96529.69
2023-02-04T07:53:26.609Z,96528.28
2023-02-04T07:54:28.166Z,96522.41
2023-02-04T07:55:29.949Z,96520.22
2023-02-04T07:56:31.567Z,96518.06
2023-02-04T07:57:33.211Z,96522.09
2023-02-04T07:58:34.728Z,96522.41
2023-02-04T07:59:36.270Z,96526.13
2023-02-04T08:00:37.819Z,96527.72
2023-02-04T08:01:39.402Z,96521.63
2023-02-04T08:02:41.990Z,96519.44
2023-02-04T08:03:43.799Z,96526.13
2023-02-04T08:04:45.372Z,96517.47
2023-02-04T08:05:46.979Z,96518.00
2023-02-04T08:06:48.525Z,96516.63
2023-02-04T08:07:50.029Z,96523.88
2023-02-04T08:08:51.550Z,96523.47
2023-02-04T08:09:53.194Z,96524.84
2023-02-04T08:10:54.736Z,96534.06
2023-02-04T08:11:56.396Z,96527.78
2023-02-04T08:12:57.951Z,96523.09
2023-02-04T08:13:59.549Z,96528.16
2023-02-04T08:15:01.503Z,96523.59
2023-02-04T08:16:03.809Z,96520.66
2023-02-04T08:17:05.436Z,96517.63
2023-02-04T08:18:07.117Z,96523.81
2023-02-04T08:19:08.627Z,96522.84
2023-02-04T08:20:11.417Z,96525.25
2023-02-04T08:21:13.045Z,96522.19
2023-02-04T08:22:14.625Z,96524.25
2023-02-04T08:23:16.290Z,96515.16
2023-02-04T08:24:18.038Z,96515.75
2023-02-04T08:25:19.692Z,96514.75
2023-02-04T08:26:21.726Z,96506.97
2023-02-04T08:27:23.294Z,96513.47
2023-02-04T08:28:24.920Z,96507.47
2023-02-04T08:29:26.471Z,96510.84
2023-02-04T08:30:28.029Z,96506.53
2023-02-04T08:31:29.709Z,96500.47
2023-02-04T08:32:31.454Z,96496.47
2023-02-04T08:33:33.339Z,96500.09
2023-02-04T08:34:34.854Z,96500.09
2023-02-04T08:35:36.402Z,96493.66
2023-02-04T08:36:39.903Z,96490.16
2023-02-04T08:37:41.529Z,96496.84
2023-02-04T08:38:44.611Z,96502.19
2023-02-04T08:39:47.390Z,96495.13
2023-02-04T08:40:48.940Z,96496.72
2023-02-04T08:41:51.399Z,96499.28
2023-02-04T08:42:52.953Z,96498.03
2023-02-04T08:43:54.514Z,96496.97
2023-02-04T08:44:56.113Z,96495.47
2023-02-04T08:45:57.823Z,96497.72
2023-02-04T08:46:59.435Z,96496.19
2023-02-04T08:48:01.040Z,96501.28
2023-02-04T08:49:02.642Z,96499.34
2023-02-04T08:50:04.208Z,96504.81
2023-02-04T08:51:05.997Z,96504.34
2023-02-04T08:52:08.090Z,96503.25
2023-02-04T08:53:09.698Z,96516.13
2023-02-04T08:54:11.252Z,96509.94
2023-02-04T08:55:12.809Z,96508.97
2023-02-04T08:56:17.919Z,96504.63
2023-02-04T08:57:19.519Z,96510.34
2023-02-04T08:58:21.053Z,96504.66
2023-02-04T08:59:24.208Z,96510.94
2023-02-04T09:00:25.847Z,96511.00
2023-02-04T09:01:27.431Z,96507.19
2023-02-04T09:02:29.006Z,96515.22
2023-02-04T09:03:30.707Z,96509.53
2023-02-04T09:04:32.423Z,96506.75
2023-02-04T09:05:34.037Z,96504.44
2023-02-04T09:06:35.620Z,96509.16
2023-02-04T09:07:37.177Z,96516.22
2023-02-04T09:08:38.760Z,96509.94
2023-02-04T09:09:40.322Z,96514.75
2023-02-04T09:10:42.030Z,96510.34
2023-02-04T09:11:43.983Z,96505.91
2023-02-04T09:12:45.796Z,96507.94
2023-02-04T09:13:47.360Z,96495.19
2023-02-04T09:14:49.000Z,96501.66
2023-02-04T09:15:53.513Z,96495.97
2023-02-04T09:16:55.778Z,96501.28
2023-02-04T09:18:04.708Z,96498.50
2023-02-04T09:19:09.079Z,96505.19
2023-02-04T09:20:11.153Z,96498.69
2023-02-04T09:21:12.673Z,96503.00
2023-02-04T09:22:15.323Z,96499.16
2023-02-04T09:23:17.204Z,96488.91
2023-02-04T09:24:18.852Z,96490.34
2023-02-04T09:25:20.391Z,96487.78
2023-02-04T09:26:22.445Z,96494.06
2023-02-04T09:27:24.029Z,96489.13
2023-02-04T09:28:25.661Z,96489.13
2023-02-04T09:29:27.168Z,96489.47
2023-02-04T09:30:28.723Z,96487.31
2023-02-04T09:31:30.438Z,96487.31
2023-02-04T09:32:32.177Z,96488.88
2023-02-04T09:33:34.527Z,96479.81
2023-02-04T09:34:36.090Z,96478.84
2023-02-04T09:35:37.840Z,96477.47
2023-02-04T09:36:39.413Z,96472.50
2023-02-04T09:37:40.983Z,96474.25
2023-02-04T09:38:42.666Z,96469.91
2023-02-04T09:39:44.230Z,96464.47
2023-02-04T09:40:50.488Z,96460.41
2023-02-04T09:41:54.325Z,96459.47
2023-02-04T09:42:56.576Z,96459.88
2023-02-04T09:43:59.463Z,96460.00
2023-02-04T09:45:03.247Z,96468.16
2023-02-04T09:46:05.579Z,96469.56
2023-02-04T09:47:11.002Z,96469.31
2023-02-04T09:48:14.645Z,96466.03
2023-02-04T09:49:16.988Z,96466.34
2023-02-04T09:50:22.644Z,96464.34
2023-02-04T09:51:27.919Z,96463.84
2023-02-04T09:52:29.479Z,96462.63
2023-02-04T09:53:32.332Z,96460.59
2023-02-04T09:54:34.071Z,96462.78
2023-02-04T09:55:39.259Z,96458.06
2023-02-04T09:56:41.156Z,96459.16
2023-02-04T09:57:43.089Z,96458.69
2023-02-04T09:58:44.715Z,96461.22
2023-02-04T09:59:47.117Z,96461.56
2023-02-04T10:00:58.194Z,96453.47
2023-02-04T10:02:01.900Z,96458.16
2023-02-04T10:03:03.685Z,96452.06
2023-02-04T10:04:06.306Z,96451.28
2023-02-04T10:05:14.852Z,96447.03
2023-02-04T10:06:19.126Z,96449.09
2023-02-04T10:07:25.147Z,96449.56
2023-02-04T10:08:30.568Z,96439.44
2023-02-04T10:09:32.170Z,96442.38
2023-02-04T10:10:34.275Z,96437.84
2023-02-04T10:11:38.701Z,96438.81
2023-02-04T10:12:40.304Z,96433.50
2023-02-04T10:13:45.738Z,96425.72
2023-02-04T10:14:47.710Z,96432.91
2023-02-04T10:15:50.871Z,96427.75
2023-02-04T10:16:59.338Z,96428.38
2023-02-04T10:18:08.085Z,96420.97
2023-02-04T10:19:14.848Z,96436.63
2023-02-04T10:20:19.190Z,96426.00
2023-02-04T10:21:29.412Z,96425.09
2023-02-04T10:22:30.955Z,96428.38
2023-02-04T10:23:32.690Z,96428.75
2023-02-04T10:24:35.682Z,96424.50
2023-02-04T10:25:37.594Z,96426.09
2023-02-04T10:26:39.193Z,96429.69
2023-02-04T10:27:57.269Z,96429.41
2023-02-04T10:29:04.219Z,96425.00
2023-02-04T10:30:06.174Z,96419.06
2023-02-04T10:31:29.306Z,96414.53
2023-02-04T10:32:33.377Z,96416.09
2023-02-04T10:33:37.128Z,96412.81
2023-02-04T10:34:39.994Z,96407.84
2023-02-04T10:35:51.954Z,96405.31
2023-02-04T10:36:57.880Z,96398.13
2023-02-04T10:38:05.962Z,96388.16
2023-02-04T10:39:14.978Z,96403.00
2023-02-04T10:40:42.963Z,96391.69
2023-02-04T10:41:48.880Z,96391.09
2023-02-04T10:42:52.616Z,96395.78
2023-02-04T10:44:05.464Z,96388.44
2023-02-04T10:45:21.283Z,96396.88
2023-02-04T10:46:22.886Z,96398.13
2023-02-04T10:47:31.032Z,96398.94
2023-02-04T10:48:43.064Z,96388.59
2023-02-04T10:50:07.563Z,96390.16
2023-02-04T10:51:13.250Z,96387.34
2023-02-04T10:52:17.961Z,96386.91
2023-02-04T10:53:40.228Z,96385.34
2023-02-04T10:54:42.293Z,96383.31
2023-02-04T10:55:48.940Z,96379.22
2023-02-04T10:56:50.518Z,96378.78
2023-02-04T10:57:53.683Z,96374.41
2023-02-04T10:58:55.243Z,96373.31
2023-02-04T11:00:00.259Z,96363.28
2023-02-04T11:01:02.169Z,96365.44
2023-02-04T11:02:24.506Z,96358.69
2023-02-04T11:03:28.212Z,96352.44
2023-02-04T11:04:29.952Z,96360.72
2023-02-04T11:05:33.776Z,96356.03
2023-02-04T11:06:35.352Z,96361.16
2023-02-04T11:07:36.863Z,96356.91
2023-02-04T11:08:39.877Z,96361.88
2023-02-04T11:09:42.478Z,96355.63
2023-02-04T11:10:44.113Z,96346.56
2023-02-04T11:11:50.658Z,96349.56
2023-02-04T11:12:55.215Z,96346.63
2023-02-04T11:13:56.731Z,96342.25
2023-02-04T11:14:58.716Z,96337.09
2023-02-04T11:16:18.669Z,96329.13
2023-02-04T11:17:21.290Z,96335.72
2023-02-04T11:18:22.830Z,96340.09
2023-02-04T11:19:37.193Z,96338.38
2023-02-04T11:20:40.834Z,96334.31
2023-02-04T11:21:45.737Z,96341.38
2023-02-04T11:22:53.812Z,96345.75
2023-02-04T11:24:16.421Z,96338.84
2023-02-04T11:25:39.596Z,96335.25
2023-02-04T11:26:51.288Z,96326.97
2023-02-04T11:27:53.163Z,96328.41
2023-02-04T11:29:00.744Z,96328.25
2023-02-04T11:30:08.073Z,96324.78
2023-02-04T11:31:16.873Z,96320.44
2023-02-04T11:32:38.523Z,96317.16
2023-02-04T11:33:42.200Z,96314.03
2023-02-04T11:34:46.849Z,96317.75
2023-02-04T11:36:02.782Z,96317.13
2023-02-04T11:37:13.999Z,96320.44
2023-02-04T11:38:30.895Z,96317.44
2023-02-04T11:39:37.119Z,96312.88
2023-02-04T11:40:40.182Z,96315.06
2023-02-04T11:41:46.252Z,96315.03
2023-02-04T11:42:48.354Z,96309.81
2023-02-04T11:43:53.233Z,96308.44
2023-02-04T11:45:08.934Z,96303.84
2023-02-04T11:46:16.746Z,96307.94
2023-02-04T11:47:18.422Z,96301.88
2023-02-04T11:48:21.358Z,96311.59
2023-02-04T11:49:25.020Z,96304.72
2023-02-04T11:50:33.399Z,96302.50
2023-02-04T11:51:35.252Z,96306.28
2023-02-04T11:52:36.851Z,96305.94
2023-02-04T11:53:38.453Z,96307.03
2023-02-04T11:54:40.330Z,96302.66
2023-02-04T11:55:47.645Z,96298.91
2023-02-04T11:56:52.881Z,96301.22
2023-02-04T11:57:55.796Z,96295.94
2023-02-04T11:58:58.529Z,96300.47
2023-02-04T12:00:00.287Z,96302.22
2023-02-04T12:01:01.858Z,96297.38
2023-02-04T12:02:26.144Z,96301.00
2023-02-04T12:03:36.003Z,96285.19
2023-02-04T12:04:37.584Z,96291.31
2023-02-04T12:05:44.445Z,96288.81
2023-02-04T12:06:57.931Z,96288.50
2023-02-04T12:08:11.850Z,96287.09
2023-02-04T12:09:16.402Z,96291.91
2023-02-04T12:10:17.923Z,96287.38
2023-02-04T12:11:33.351Z,96284.91
2023-02-04T12:12:44.358Z,96281.47
2023-02-04T12:13:51.008Z,96287.25
2023-02-04T12:15:02.663Z,96278.47
2023-02-04T12:16:06.702Z,96284.75
2023-02-04T12:17:19.603Z,96285.38
2023-02-04T12:18:21.318Z,96285.38
2023-02-04T12:19:27.309Z,96281.47